Time;durP1;ratioP1;P1;durP2;ratioP2;P2;SDS_P1;SDS_P2;PMS_P1;PMS_P2;Temp;Humidity;BMP_temperature;BMP_pressure;BME280_temperature;BME280_humidity;BME280_pressure;Samples;Min_cycle;Max_cycle;Signal;HPM_P1;HPM_P2
2022/08/22 00:01:32;;;;;;;1.52;0.40;;;17.30;99.90;;;;;;5005960;28;20289;-73
2022/08/22 00:04:15;;;;;;;1.95;0.32;;;17.50;99.90;;;;;;5008792;28;20211;-70
2022/08/22 00:06:53;;;;;;;2.38;0.70;;;17.60;99.90;;;;;;5006531;28;20226;-75
2022/08/22 00:09:32;;;;;;;0.68;0.50;;;17.70;99.90;;;;;;5008452;28;20205;-68
2022/08/22 00:12:13;;;;;;;0.47;0.30;;;17.80;99.90;;;;;;5005803;28;20198;-69
2022/08/22 00:14:51;;;;;;;1.88;0.60;;;17.80;99.90;;;;;;5005820;28;20211;-68
2022/08/22 00:17:36;;;;;;;3.10;0.75;;;17.90;99.90;;;;;;5008812;28;20198;-68
2022/08/22 00:20:14;;;;;;;1.02;0.40;;;18.00;99.90;;;;;;5008175;28;20696;-73
2022/08/22 00:22:52;;;;;;;0.82;0.30;;;18.10;99.90;;;;;;5005571;28;20229;-68
2022/08/22 00:25:35;;;;;;;0.65;0.30;;;18.10;99.90;;;;;;5011417;28;20195;-69
2022/08/22 00:28:10;;;;;;;0.93;0.30;;;18.10;99.90;;;;;;5008482;28;20229;-84
2022/08/22 00:30:53;;;;;;;0.30;0.20;;;18.20;99.90;;;;;;5008016;28;20240;-72
2022/08/22 00:33:37;;;;;;;4.93;1.48;;;18.40;99.90;;;;;;5009942;28;20222;-69
2022/08/22 00:36:20;;;;;;;1.17;0.40;;;18.50;99.90;;;;;;5008965;28;20198;-68
2022/08/22 00:38:55;;;;;;;1.42;0.52;;;18.60;99.90;;;;;;5010578;28;20207;-81
2022/08/22 00:41:42;;;;;;;0.40;0.40;;;18.80;99.90;;;;;;5013167;28;20194;-74
2022/08/22 00:44:37;;;;;;;0.93;0.40;;;18.80;99.90;;;;;;5013371;28;20261;-68
2022/08/22 00:47:27;;;;;;;0.30;0.30;;;18.90;99.90;;;;;;5011496;28;20218;-73
2022/08/22 00:50:33;;;;;;;1.85;0.40;;;18.80;99.90;;;;;;5009260;28;20567;-68
2022/08/22 00:53:41;;;;;;;4.47;0.40;;;18.80;99.90;;;;;;5013050;28;20205;-81
2022/08/22 00:56:43;;;;;;;0.82;0.30;;;19.00;99.90;;;;;;5012812;28;20206;-71
2022/08/22 00:59:36;;;;;;;0.55;0.30;;;19.10;99.90;;;;;;5013914;28;20646;-69
2022/08/22 01:02:22;;;;;;;0.65;0.40;;;19.20;99.90;;;;;;4985459;28;20257;-69
2022/08/22 01:05:28;;;;;;;0.38;0.30;;;19.20;99.90;;;;;;5015271;28;20658;-68
2022/08/22 01:08:17;;;;;;;0.70;0.30;;;19.40;99.90;;;;;;5015011;28;20556;-69
2022/08/22 01:11:07;;;;;;;0.63;0.40;;;19.50;99.90;;;;;;5009668;28;20246;-67
2022/08/22 01:14:14;;;;;;;6.75;0.98;;;19.70;99.90;;;;;;5006185;28;20214;-71
2022/08/22 01:17:19;;;;;;;2.90;0.50;;;19.90;99.90;;;;;;5013432;28;20210;-74
2022/08/22 01:20:42;;;;;;;2.47;0.52;;;19.90;99.90;;;;;;5013308;28;20201;-68
2022/08/22 01:23:47;;;;;;;2.80;0.60;;;19.90;99.90;;;;;;5009649;28;20203;-68
2022/08/22 01:26:59;;;;;;;2.50;0.73;;;20.10;99.90;;;;;;5011225;28;20222;-71
2022/08/22 01:30:01;;;;;;;0.52;0.45;;;20.30;99.90;;;;;;4932937;29;20206;-69
2022/08/22 01:33:11;;;;;;;1.40;0.40;;;20.30;99.90;;;;;;4931133;29;20193;-70
2022/08/22 01:36:13;;;;;;;3.30;0.68;;;20.30;99.90;;;;;;5009991;28;20215;-70
2022/08/22 01:39:13;;;;;;;1.38;0.60;;;20.40;99.90;;;;;;4987521;28;20204;-67
2022/08/22 01:42:23;;;;;;;1.85;0.50;;;20.50;99.90;;;;;;5010282;28;20203;-68
2022/08/22 01:45:28;;;;;;;0.55;0.45;;;20.60;99.90;;;;;;5011319;28;20573;-69
2022/08/22 01:48:09;;;;;;;1.40;0.38;;;20.60;99.90;;;;;;5011850;28;20230;-68
2022/08/22 01:50:44;;;;;;;3.03;0.40;;;20.60;99.90;;;;;;5013838;28;20222;-69
2022/08/22 01:53:21;;;;;;;0.50;0.50;;;20.70;99.90;;;;;;5012905;28;20206;-69
2022/08/22 01:56:01;;;;;;;0.98;0.50;;;20.80;99.90;;;;;;5007310;28;20218;-68
2022/08/22 01:58:34;;;;;;;1.38;0.50;;;20.80;99.90;;;;;;5009558;28;20211;-75
2022/08/22 02:01:24;;;;;;;1.52;0.50;;;20.80;99.90;;;;;;5011528;28;20207;-68
2022/08/22 02:04:04;;;;;;;0.47;0.40;;;20.80;99.90;;;;;;5005958;28;20201;-67
2022/08/22 02:06:43;;;;;;;2.05;0.45;;;20.90;99.90;;;;;;5012745;28;20682;-68
2022/08/22 02:09:31;;;;;;;0.43;0.40;;;21.00;99.90;;;;;;5011452;28;20202;-69
2022/08/22 02:12:15;;;;;;;2.70;0.45;;;21.10;99.90;;;;;;5011970;28;20199;-67
2022/08/22 02:14:53;;;;;;;3.95;0.50;;;21.10;99.90;;;;;;5013727;28;20191;-67
2022/08/22 02:17:30;;;;;;;1.88;0.65;;;21.20;99.90;;;;;;5013505;28;20202;-68
2022/08/22 02:20:08;;;;;;;0.85;0.25;;;21.20;99.90;;;;;;5011517;28;20197;-68
2022/08/22 02:22:44;;;;;;;0.30;0.30;;;21.20;99.90;;;;;;5013730;28;20199;-67
2022/08/22 02:25:24;;;;;;;1.52;0.40;;;21.30;99.90;;;;;;5013727;28;20190;-67
2022/08/22 02:28:02;;;;;;;2.03;0.30;;;21.50;99.90;;;;;;5013499;28;20218;-68
2022/08/22 02:30:48;;;;;;;0.30;0.30;;;21.50;99.90;;;;;;5008380;28;20220;-69
2022/08/22 02:33:27;;;;;;;1.15;0.47;;;21.50;99.90;;;;;;5006024;28;20199;-68
2022/08/22 02:36:04;;;;;;;3.10;0.30;;;21.50;99.90;;;;;;5005910;28;20198;-68
2022/08/22 02:38:40;;;;;;;1.42;0.50;;;21.40;99.90;;;;;;5013266;28;20309;-68
2022/08/22 02:41:24;;;;;;;2.72;0.30;;;21.40;99.90;;;;;;5012285;28;20191;-67
2022/08/22 02:43:59;;;;;;;0.60;0.30;;;21.40;99.90;;;;;;5013174;28;20195;-69
2022/08/22 02:46:41;;;;;;;0.55;0.40;;;21.40;99.90;;;;;;5013347;28;20633;-68
2022/08/22 02:49:20;;;;;;;0.40;0.30;;;21.60;99.90;;;;;;5006833;28;20195;-67
2022/08/22 02:51:59;;;;;;;1.77;0.30;;;21.60;99.90;;;;;;5012953;28;20203;-67
2022/08/22 02:54:35;;;;;;;0.90;0.30;;;21.70;99.90;;;;;;5013221;28;20197;-67
2022/08/22 02:57:12;;;;;;;2.45;0.47;;;21.70;99.90;;;;;;5005487;28;20190;-67
2022/08/22 03:00:09;;;;;;;1.58;0.20;;;21.80;99.90;;;;;;5013039;28;20563;-70
2022/08/22 03:02:43;;;;;;;0.38;0.30;;;21.90;99.90;;;;;;5012049;28;20314;-66
2022/08/22 03:05:24;;;;;;;1.02;0.60;;;21.90;99.90;;;;;;5013091;28;20223;-68
2022/08/22 03:08:02;;;;;;;2.05;0.35;;;21.90;99.90;;;;;;5012741;28;20236;-67
2022/08/22 03:10:37;;;;;;;0.73;0.30;;;21.80;99.90;;;;;;5012987;28;20194;-68
2022/08/22 03:13:15;;;;;;;0.65;0.30;;;21.80;99.90;;;;;;5004976;28;20191;-67
2022/08/22 03:15:50;;;;;;;0.63;0.28;;;21.80;99.90;;;;;;5012684;28;20241;-67
2022/08/22 03:18:27;;;;;;;3.17;0.30;;;21.90;99.90;;;;;;5012795;28;20286;-67
2022/08/22 03:21:13;;;;;;;0.90;0.20;;;22.10;99.90;;;;;;5012645;28;20256;-67
2022/08/22 03:23:47;;;;;;;0.40;0.30;;;22.00;99.90;;;;;;5011529;28;20199;-68
2022/08/22 03:26:26;;;;;;;0.35;0.28;;;22.00;99.90;;;;;;5011765;28;20642;-69
2022/08/22 03:29:03;;;;;;;0.45;0.30;;;22.00;99.90;;;;;;5012266;28;20217;-68
2022/08/22 03:31:34;;;;;;;0.68;0.35;;;21.90;99.90;;;;;;5007392;28;20373;-68
2022/08/22 03:34:23;;;;;;;0.47;0.22;;;21.80;99.90;;;;;;5011333;28;20198;-68
2022/08/22 03:37:12;;;;;;;1.10;0.30;;;21.70;99.90;;;;;;5012069;28;20241;-69
2022/08/22 03:39:55;;;;;;;0.93;0.32;;;21.70;99.90;;;;;;5012511;28;20298;-68
2022/08/22 03:43:12;;;;;;;0.65;0.30;;;21.60;99.90;;;;;;5012301;28;20191;-67
2022/08/22 03:46:28;;;;;;;0.60;0.30;;;21.60;99.90;;;;;;4951624;29;20212;-67
2022/08/22 03:49:21;;;;;;;0.32;0.20;;;21.60;99.90;;;;;;4968392;28;20255;-68
2022/08/22 03:52:16;;;;;;;0.75;0.20;;;21.80;99.90;;;;;;4969781;28;20207;-68
2022/08/22 03:55:21;;;;;;;1.15;0.50;;;21.80;99.90;;;;;;5000695;28;20240;-67
2022/08/22 03:58:15;;;;;;;3.83;0.50;;;21.90;99.90;;;;;;5012441;28;20293;-80
2022/08/22 04:01:23;;;;;;;0.43;0.20;;;21.80;99.90;;;;;;5007937;28;20191;-78
2022/08/22 04:04:33;;;;;;;2.20;0.40;;;21.80;99.90;;;;;;5001921;28;20195;-75
2022/08/22 04:07:27;;;;;;;3.75;0.60;;;21.70;99.90;;;;;;5009777;28;20191;-67
2022/08/22 04:10:26;;;;;;;3.15;0.50;;;21.80;99.90;;;;;;5011992;28;20704;-68
2022/08/22 04:13:31;;;;;;;0.52;0.40;;;21.80;99.90;;;;;;5009588;28;20213;-68
2022/08/22 04:16:15;;;;;;;0.65;0.40;;;21.80;99.90;;;;;;5013011;28;20575;-67
2022/08/22 04:19:22;;;;;;;2.67;0.40;;;21.90;99.90;;;;;;5016145;28;20198;-67
2022/08/22 04:22:14;;;;;;;1.00;0.32;;;21.90;99.90;;;;;;5011639;28;20260;-68
2022/08/22 04:24:55;;;;;;;1.35;0.38;;;21.90;99.90;;;;;;5015796;28;20199;-74
2022/08/22 04:27:31;;;;;;;0.40;0.30;;;21.70;99.90;;;;;;5014909;28;20195;-84
2022/08/22 04:30:07;;;;;;;3.25;0.60;;;21.60;99.90;;;;;;5012979;28;20234;-70
2022/08/22 04:32:43;;;;;;;0.77;0.30;;;21.60;99.90;;;;;;5006457;28;20187;-84
2022/08/22 04:35:31;;;;;;;0.57;0.30;;;21.70;99.90;;;;;;5013405;28;20195;-83
2022/08/22 04:38:05;;;;;;;0.47;0.30;;;21.80;99.90;;;;;;5013658;28;20606;-78
2022/08/22 04:40:43;;;;;;;2.28;0.32;;;21.70;99.90;;;;;;5014557;28;20208;-74
2022/08/22 04:43:21;;;;;;;3.10;0.30;;;21.80;99.90;;;;;;5005907;28;20203;-73
2022/08/22 04:45:55;;;;;;;1.83;0.28;;;21.70;99.90;;;;;;5014559;28;20658;-70
2022/08/22 04:48:33;;;;;;;2.92;0.40;;;21.70;99.90;;;;;;5015691;28;20207;-74
2022/08/22 04:51:11;;;;;;;0.32;0.30;;;21.60;99.90;;;;;;5014006;28;20198;-70
2022/08/22 04:54:01;;;;;;;3.55;0.40;;;21.40;99.90;;;;;;5014556;28;20207;-77
2022/08/22 04:56:43;;;;;;;1.10;0.20;;;21.40;99.90;;;;;;5008886;28;20207;-70
2022/08/22 04:59:17;;;;;;;4.93;0.40;;;21.50;99.90;;;;;;5010786;28;20249;-79
2022/08/22 05:01:54;;;;;;;2.45;0.40;;;21.50;99.90;;;;;;5014038;28;20212;-79
2022/08/22 05:04:29;;;;;;;2.25;0.30;;;21.50;99.90;;;;;;5012099;28;20195;-68
2022/08/22 05:07:12;;;;;;;1.30;0.30;;;21.40;99.90;;;;;;5013947;28;20278;-68
2022/08/22 05:09:53;;;;;;;1.75;0.40;;;21.40;99.90;;;;;;5013112;28;20285;-70
2022/08/22 05:12:32;;;;;;;1.42;0.30;;;21.40;99.90;;;;;;5011633;28;20651;-69
2022/08/22 05:15:08;;;;;;;0.75;0.40;;;21.50;99.90;;;;;;5013693;28;20199;-73
2022/08/22 05:17:41;;;;;;;0.82;0.22;;;21.50;99.90;;;;;;5007718;28;20205;-71
2022/08/22 05:20:20;;;;;;;0.30;0.30;;;21.50;99.90;;;;;;5014542;28;20206;-70
2022/08/22 05:22:55;;;;;;;1.70;0.35;;;21.40;99.90;;;;;;5014206;28;20207;-68
2022/08/22 05:25:31;;;;;;;1.25;0.50;;;21.30;99.90;;;;;;5011643;28;20216;-68
2022/08/22 05:28:11;;;;;;;4.88;0.40;;;21.20;99.90;;;;;;5009929;28;20214;-69
2022/08/22 05:30:44;;;;;;;2.08;0.50;;;21.20;99.90;;;;;;5005367;28;20324;-72
2022/08/22 05:33:21;;;;;;;0.75;0.40;;;21.20;99.90;;;;;;5008010;28;20273;-72
2022/08/22 05:35:56;;;;;;;1.05;0.82;;;21.20;99.90;;;;;;5008140;28;20569;-74
2022/08/22 05:38:31;;;;;;;4.68;0.30;;;21.10;99.90;;;;;;5011418;28;20197;-73
2022/08/22 05:41:07;;;;;;;4.03;0.88;;;21.00;99.90;;;;;;5008871;28;20578;-71
2022/08/22 05:43:42;;;;;;;0.68;0.30;;;21.00;99.90;;;;;;5007600;28;20197;-70
2022/08/22 05:46:18;;;;;;;0.80;0.40;;;20.90;99.90;;;;;;5009032;28;20194;-74
2022/08/22 05:48:57;;;;;;;1.10;0.30;;;20.90;99.90;;;;;;5007937;28;20693;-75
2022/08/22 05:51:32;;;;;;;0.63;0.20;;;20.80;99.90;;;;;;5006975;28;20279;-69
2022/08/22 05:54:14;;;;;;;0.55;0.30;;;20.80;99.90;;;;;;5007906;28;20249;-68
2022/08/22 05:56:48;;;;;;;0.28;0.20;;;20.90;99.90;;;;;;5009099;28;20195;-68
2022/08/22 05:59:27;;;;;;;1.52;0.40;;;20.90;99.90;;;;;;5008489;28;20202;-73
2022/08/22 06:02:12;;;;;;;1.65;0.40;;;20.90;99.90;;;;;;5004825;28;20200;-73
2022/08/22 06:04:50;;;;;;;0.43;0.22;;;20.90;99.90;;;;;;5011259;28;20238;-81
2022/08/22 06:07:27;;;;;;;2.83;0.40;;;20.80;99.90;;;;;;5008300;28;20207;-78
2022/08/22 06:10:21;;;;;;;0.50;0.30;;;20.80;99.90;;;;;;5007456;28;20651;-83
2022/08/22 06:13:00;;;;;;;0.28;0.28;;;20.70;99.90;;;;;;5006978;28;20624;-69
2022/08/22 06:15:45;;;;;;;0.60;0.30;;;20.60;99.90;;;;;;5008904;28;20613;-83
2022/08/22 06:18:18;;;;;;;1.30;0.38;;;20.70;99.90;;;;;;5008468;28;20226;-74
2022/08/22 06:20:53;;;;;;;1.17;0.25;;;20.60;99.90;;;;;;5005995;28;20286;-78
2022/08/22 06:23:27;;;;;;;0.75;0.40;;;20.60;99.90;;;;;;5007004;28;20628;-68
2022/08/22 06:26:04;;;;;;;4.10;0.30;;;20.60;99.90;;;;;;5005251;28;20194;-68
2022/08/22 06:28:38;;;;;;;1.35;0.30;;;20.50;99.90;;;;;;5005288;28;20210;-68
2022/08/22 06:31:14;;;;;;;1.23;0.25;;;20.60;99.90;;;;;;5007694;28;20257;-68
2022/08/22 06:33:47;;;;;;;0.88;0.30;;;20.50;99.90;;;;;;5005033;28;20195;-68
2022/08/22 06:36:33;;;;;;;0.65;0.28;;;20.50;99.90;;;;;;5007204;28;20209;-73
2022/08/22 06:39:13;;;;;;;0.47;0.30;;;20.40;99.90;;;;;;4999811;28;20211;-84
2022/08/22 06:41:51;;;;;;;3.22;0.45;;;20.30;99.90;;;;;;5009523;28;20662;-79
2022/08/22 06:44:38;;;;;;;1.15;0.22;;;20.10;99.90;;;;;;5001213;28;20188;-69
2022/08/22 06:47:12;;;;;;;0.35;0.30;;;20.00;99.90;;;;;;5007591;28;20647;-68
2022/08/22 06:49:46;;;;;;;1.48;0.40;;;19.90;99.90;;;;;;5006027;28;20223;-69
2022/08/22 06:52:22;;;;;;;1.02;0.20;;;19.80;99.90;;;;;;5003644;28;20601;-70
2022/08/22 06:54:59;;;;;;;2.15;0.30;;;19.70;99.90;;;;;;5000431;28;20608;-74
2022/08/22 06:57:34;;;;;;;1.48;0.30;;;19.70;99.90;;;;;;5002372;28;20309;-83
2022/08/22 07:00:09;;;;;;;0.52;0.40;;;19.60;99.90;;;;;;5008039;28;20222;-74
2022/08/22 07:02:44;;;;;;;0.70;0.40;;;19.50;99.90;;;;;;5002515;28;20592;-70
2022/08/22 07:05:19;;;;;;;0.40;0.40;;;19.50;99.90;;;;;;5005785;28;20190;-68
2022/08/22 07:07:50;;;;;;;1.98;0.40;;;19.40;99.90;;;;;;5003973;28;20198;-68
2022/08/22 07:10:24;;;;;;;0.50;0.40;;;19.30;99.90;;;;;;5007288;28;20215;-68
2022/08/22 07:13:00;;;;;;;2.13;0.40;;;19.30;99.90;;;;;;5004206;28;20203;-68
2022/08/22 07:15:35;;;;;;;0.65;0.30;;;19.20;99.90;;;;;;5001479;28;20299;-72
2022/08/22 07:18:09;;;;;;;0.80;0.30;;;19.10;99.90;;;;;;5005707;28;20290;-67
2022/08/22 07:20:44;;;;;;;0.38;0.20;;;19.00;99.90;;;;;;5002530;28;20202;-69
2022/08/22 07:23:24;;;;;;;1.10;0.30;;;18.80;99.90;;;;;;5005726;28;20198;-67
2022/08/22 07:26:09;;;;;;;2.05;0.30;;;18.80;99.90;;;;;;5007196;28;20198;-69
2022/08/22 07:28:46;;;;;;;0.30;0.30;;;18.70;99.90;;;;;;5008468;28;20662;-67
2022/08/22 07:31:31;;;;;;;0.40;0.32;;;18.60;99.90;;;;;;5006137;28;20245;-68
2022/08/22 07:34:18;;;;;;;0.68;0.30;;;18.50;99.90;;;;;;5007279;28;20256;-68
2022/08/22 07:36:51;;;;;;;0.40;0.30;;;18.50;99.90;;;;;;5004933;28;20239;-76
2022/08/22 07:39:31;;;;;;;1.60;0.30;;;18.40;99.90;;;;;;5009070;28;20196;-74
2022/08/22 07:42:13;;;;;;;0.60;0.40;;;18.30;99.90;;;;;;5005959;28;20201;-69
2022/08/22 07:45:03;;;;;;;0.30;0.30;;;18.30;99.90;;;;;;5009202;28;20209;-67
2022/08/22 07:47:53;;;;;;;0.40;0.40;;;18.20;99.90;;;;;;5007699;28;20600;-68
2022/08/22 07:50:27;;;;;;;1.20;0.50;;;18.10;99.90;;;;;;5005590;28;20214;-68
2022/08/22 07:53:05;;;;;;;1.35;0.50;;;18.10;99.90;;;;;;5007076;28;20190;-69
2022/08/22 07:55:38;;;;;;;0.93;0.50;;;18.10;99.90;;;;;;5008348;28;20198;-82
2022/08/22 07:58:12;;;;;;;1.80;0.60;;;18.00;99.90;;;;;;5003680;28;20194;-67
2022/08/22 08:00:48;;;;;;;1.00;0.45;;;18.00;99.90;;;;;;5005264;28;20225;-79
2022/08/22 08:03:22;;;;;;;0.65;0.50;;;17.90;99.90;;;;;;5003924;28;20195;-80
2022/08/22 08:05:53;;;;;;;0.85;0.70;;;17.80;99.90;;;;;;5005086;28;20207;-71
2022/08/22 08:08:27;;;;;;;1.60;0.68;;;17.80;99.90;;;;;;5006202;28;20194;-84
2022/08/22 08:11:01;;;;;;;0.70;0.50;;;17.70;99.90;;;;;;5003346;28;20657;-69
2022/08/22 08:13:36;;;;;;;1.00;0.55;;;17.60;99.90;;;;;;5002029;28;21032;-68
2022/08/22 08:16:12;;;;;;;0.77;0.50;;;17.60;99.90;;;;;;5004970;28;20207;-67
2022/08/22 08:18:43;;;;;;;2.40;0.43;;;17.60;99.90;;;;;;5002799;28;20207;-67
2022/08/22 08:21:27;;;;;;;2.03;0.60;;;17.50;99.90;;;;;;5007723;28;20651;-67
2022/08/22 08:23:58;;;;;;;0.88;0.60;;;17.50;99.90;;;;;;5005393;28;20194;-67
2022/08/22 08:26:34;;;;;;;0.80;0.43;;;17.40;99.90;;;;;;5004818;28;20199;-68
2022/08/22 08:29:06;;;;;;;2.35;0.50;;;17.40;99.90;;;;;;5004991;28;20221;-72
2022/08/22 08:31:42;;;;;;;0.98;0.50;;;17.30;99.90;;;;;;5003058;28;20293;-68
2022/08/22 08:34:19;;;;;;;0.80;0.55;;;17.20;99.90;;;;;;5008538;28;20658;-78
2022/08/22 08:36:55;;;;;;;0.82;0.60;;;17.10;99.90;;;;;;5006530;28;20227;-68
2022/08/22 08:39:31;;;;;;;0.75;0.60;;;17.10;99.90;;;;;;5003929;28;20195;-68
2022/08/22 08:42:23;;;;;;;1.30;0.65;;;17.00;99.90;;;;;;5003989;28;20191;-68
2022/08/22 08:45:33;;;;;;;1.65;1.00;;;17.00;99.90;;;;;;5006403;28;20237;-68
2022/08/22 08:48:27;;;;;;;2.28;0.60;;;16.90;99.90;;;;;;5003732;28;20211;-67
2022/08/22 08:51:17;;;;;;;1.65;0.88;;;16.90;99.90;;;;;;5002504;28;20217;-71
2022/08/22 08:54:12;;;;;;;2.22;0.90;;;16.90;99.90;;;;;;5001960;28;20210;-70
2022/08/22 08:56:53;;;;;;;1.77;0.75;;;16.80;99.90;;;;;;5010923;28;20246;-68
2022/08/22 08:59:41;;;;;;;1.40;0.80;;;16.70;99.90;;;;;;5011549;28;20187;-67
2022/08/22 09:02:42;;;;;;;2.05;0.82;;;16.70;99.90;;;;;;5013193;28;20199;-68
2022/08/22 09:05:50;;;;;;;0.85;0.80;;;16.70;99.90;;;;;;5006091;28;20198;-78
2022/08/22 09:08:50;;;;;;;2.08;0.90;;;16.60;99.90;;;;;;5009853;28;20203;-68
2022/08/22 09:11:47;;;;;;;2.08;0.88;;;16.60;99.90;;;;;;5007252;28;20209;-67
2022/08/22 09:14:42;;;;;;;1.25;0.73;;;16.50;99.90;;;;;;5014807;28;20206;-68
2022/08/22 09:17:53;;;;;;;1.50;1.08;;;16.40;99.90;;;;;;5013577;28;20202;-67
2022/08/22 09:20:47;;;;;;;1.48;0.80;;;16.30;99.90;;;;;;4974007;28;20223;-67
2022/08/22 09:23:43;;;;;;;2.30;0.80;;;16.20;99.90;;;;;;5005864;28;20198;-67
2022/08/22 09:26:19;;;;;;;1.98;0.98;;;16.10;99.90;;;;;;5013093;28;20199;-69
2022/08/22 09:28:58;;;;;;;3.22;0.98;;;16.10;99.90;;;;;;5012092;28;20202;-67
2022/08/22 09:31:45;;;;;;;1.58;0.98;;;16.10;99.90;;;;;;5011709;28;20186;-67
2022/08/22 09:34:24;;;;;;;1.73;0.98;;;15.90;99.90;;;;;;5012392;28;20210;-72
2022/08/22 09:37:15;;;;;;;2.63;0.93;;;15.90;99.90;;;;;;5014575;28;20266;-68
2022/08/22 09:39:56;;;;;;;3.15;0.90;;;15.90;99.90;;;;;;5012047;28;20210;-71
2022/08/22 09:42:35;;;;;;;2.45;1.10;;;15.80;99.90;;;;;;5014240;28;20201;-68
2022/08/22 09:45:32;;;;;;;3.88;1.00;;;15.80;99.90;;;;;;5014629;28;20668;-73
2022/08/22 09:48:08;;;;;;;1.70;1.10;;;15.70;99.90;;;;;;5012406;28;20576;-68
2022/08/22 09:50:49;;;;;;;3.95;1.40;;;15.60;99.90;;;;;;5013325;28;20693;-70
2022/08/22 09:53:42;;;;;;;2.08;1.25;;;15.40;99.90;;;;;;5014506;28;20274;-68
2022/08/22 09:56:20;;;;;;;1.40;1.00;;;15.30;99.90;;;;;;5009559;28;20190;-69
2022/08/22 09:59:02;;;;;;;1.77;1.23;;;15.10;99.90;;;;;;5012557;28;20557;-72
2022/08/22 10:01:39;;;;;;;3.28;1.20;;;15.10;99.90;;;;;;5012540;28;20195;-71
2022/08/22 10:04:46;;;;;;;1.73;1.17;;;15.00;99.90;;;;;;5012868;28;20249;-73
2022/08/22 10:07:34;;;;;;;3.08;1.67;;;14.90;99.90;;;;;;5007328;28;20199;-76
2022/08/22 10:10:17;;;;;;;3.22;1.50;;;15.00;99.90;;;;;;5012573;28;20219;-70
2022/08/22 10:12:54;;;;;;;1.63;1.10;;;15.00;99.90;;;;;;5013277;28;20210;-75
2022/08/22 10:15:33;;;;;;;2.72;0.98;;;15.10;99.90;;;;;;5012945;28;20207;-71
2022/08/22 10:18:14;;;;;;;2.92;1.20;;;15.10;99.90;;;;;;5012889;28;20214;-72
2022/08/22 10:21:08;;;;;;;1.80;0.95;;;15.10;99.90;;;;;;5013985;28;20563;-71
2022/08/22 10:23:43;;;;;;;3.78;1.08;;;15.10;99.90;;;;;;5013090;28;20191;-77
2022/08/22 10:26:30;;;;;;;2.42;1.08;;;15.10;99.90;;;;;;5013203;28;20282;-75
2022/08/22 10:29:24;;;;;;;2.83;1.10;;;15.10;99.90;;;;;;5011817;28;20211;-72
2022/08/22 10:31:59;;;;;;;3.20;1.08;;;15.10;99.90;;;;;;5011449;28;20195;-68
2022/08/22 10:34:36;;;;;;;3.83;1.00;;;15.10;99.90;;;;;;5006494;28;20191;-80
2022/08/22 10:37:17;;;;;;;1.23;0.75;;;15.20;99.90;;;;;;5012554;28;20728;-74
2022/08/22 10:39:59;;;;;;;1.80;0.90;;;15.10;99.90;;;;;;5013453;28;20191;-82
2022/08/22 10:42:31;;;;;;;0.80;0.80;;;15.10;99.90;;;;;;5012035;28;20210;-83
2022/08/22 10:45:21;;;;;;;1.52;0.80;;;15.10;99.90;;;;;;5010813;28;20282;-78
2022/08/22 10:48:20;;;;;;;1.95;0.80;;;15.10;99.90;;;;;;5012588;28;20195;-80
2022/08/22 10:50:56;;;;;;;1.45;0.70;;;15.10;99.90;;;;;;5011211;28;20223;-71
2022/08/22 10:53:32;;;;;;;2.00;0.80;;;15.10;99.90;;;;;;5011395;28;20285;-85
2022/08/22 10:56:13;;;;;;;3.95;1.08;;;15.10;99.90;;;;;;5011381;28;20596;-81
2022/08/22 10:58:51;;;;;;;3.35;0.98;;;15.10;99.90;;;;;;5012702;28;20203;-84
2022/08/22 11:01:26;;;;;;;1.05;0.85;;;15.10;99.90;;;;;;5012493;28;20607;-78
2022/08/22 11:04:11;;;;;;;3.65;0.90;;;15.00;99.90;;;;;;5012689;28;20187;-68
2022/08/22 11:06:47;;;;;;;2.45;1.15;;;14.90;99.90;;;;;;5012732;28;20635;-69
2022/08/22 11:09:27;;;;;;;2.28;0.93;;;14.80;99.90;;;;;;5009539;28;20199;-68
2022/08/22 11:12:03;;;;;;;2.65;1.30;;;14.80;99.90;;;;;;5012700;28;20674;-67
2022/08/22 11:14:59;;;;;;;1.30;1.15;;;14.80;99.90;;;;;;5010815;28;20190;-78
2022/08/22 11:17:50;;;;;;;1.92;1.35;;;14.70;99.90;;;;;;5006198;28;20202;-84
2022/08/22 11:20:26;;;;;;;3.95;1.25;;;14.70;99.90;;;;;;5010249;28;20203;-83
2022/08/22 11:23:12;;;;;;;1.83;1.00;;;14.70;99.90;;;;;;5010430;28;20289;-84
2022/08/22 11:25:54;;;;;;;2.08;1.05;;;14.70;99.90;;;;;;5007192;28;20205;-79
2022/08/22 11:28:52;;;;;;;2.63;0.95;;;14.70;99.90;;;;;;5004190;28;20197;-84
2022/08/22 11:31:30;;;;;;;1.85;0.90;;;14.60;99.90;;;;;;5009959;28;20214;-68
2022/08/22 11:34:10;;;;;;;3.63;1.20;;;14.60;99.90;;;;;;5011187;28;20217;-70
2022/08/22 11:36:48;;;;;;;3.60;1.17;;;14.60;99.90;;;;;;5005269;28;20226;-67
2022/08/22 11:39:27;;;;;;;2.75;1.40;;;14.60;99.90;;;;;;5012182;28;20198;-68
2022/08/22 11:42:06;;;;;;;2.28;1.30;;;14.60;99.90;;;;;;5007460;28;20201;-69
2022/08/22 11:44:43;;;;;;;2.00;1.20;;;14.60;99.90;;;;;;5010767;28;20726;-68
2022/08/22 11:47:16;;;;;;;1.90;1.13;;;14.60;99.90;;;;;;5012636;28;20195;-68
2022/08/22 11:49:57;;;;;;;2.88;1.38;;;14.60;99.90;;;;;;5010370;28;20221;-68
2022/08/22 11:52:54;;;;;;;2.28;1.48;;;14.50;99.90;;;;;;5012266;28;20187;-67
2022/08/22 11:55:33;;;;;;;1.33;1.10;;;14.60;99.90;;;;;;5011551;28;20671;-67
2022/08/22 11:58:20;;;;;;;3.03;1.48;;;14.60;99.90;;;;;;5005408;28;20197;-67
2022/08/22 12:01:00;;;;;;;2.35;1.20;;;14.60;99.90;;;;;;5011949;28;20194;-68
2022/08/22 12:03:51;;;;;;;2.60;1.00;;;14.60;99.90;;;;;;5012316;28;20190;-68
2022/08/22 12:06:54;;;;;;;1.30;0.90;;;14.50;99.90;;;;;;5007155;28;20556;-67
2022/08/22 12:09:38;;;;;;;1.33;0.93;;;14.50;99.90;;;;;;5010728;28;20261;-77
2022/08/22 12:12:24;;;;;;;1.70;1.00;;;14.40;99.90;;;;;;5008665;28;20209;-68
2022/08/22 12:15:02;;;;;;;2.63;1.10;;;14.30;99.90;;;;;;5009749;28;20205;-67
2022/08/22 12:18:19;;;;;;;1.23;0.80;;;14.30;99.90;;;;;;5012492;28;20686;-67
2022/08/22 12:21:19;;;;;;;1.23;0.90;;;14.30;99.90;;;;;;5008383;28;20214;-68
2022/08/22 12:24:24;;;;;;;1.13;1.02;;;14.20;99.90;;;;;;5007577;28;20194;-68
2022/08/22 12:27:16;;;;;;;2.08;1.00;;;14.10;99.90;;;;;;5009340;28;20691;-67
2022/08/22 12:29:57;;;;;;;23.95;14.73;;;14.00;99.90;;;;;;5003283;28;20206;-67
2022/08/22 12:32:59;;;;;;;5.00;3.38;;;14.00;99.90;;;;;;5010212;28;20199;-67
2022/08/22 12:35:49;;;;;;;2.85;1.55;;;14.00;99.90;;;;;;5004516;28;20206;-67
2022/08/22 12:38:39;;;;;;;2.72;1.63;;;14.00;99.90;;;;;;5012923;28;20702;-68
2022/08/22 12:41:30;;;;;;;3.00;1.10;;;14.00;99.90;;;;;;5014746;28;20195;-68
2022/08/22 12:44:21;;;;;;;1.65;1.20;;;13.90;99.90;;;;;;5009376;28;20203;-85
2022/08/22 12:47:11;;;;;;;1.13;0.80;;;13.90;99.90;;;;;;5014274;28;20203;-68
2022/08/22 12:49:58;;;;;;;0.73;0.60;;;13.90;99.90;;;;;;5006083;28;20194;-72
2022/08/22 12:52:51;;;;;;;1.45;0.60;;;14.20;99.90;;;;;;5012485;28;20195;-68
2022/08/22 12:55:33;;;;;;;0.88;0.60;;;14.50;99.90;;;;;;5012070;28;20210;-68
2022/08/22 12:58:13;;;;;;;1.40;0.50;;;14.70;99.90;;;;;;5008684;28;20317;-68
2022/08/22 13:00:48;;;;;;;9.60;4.93;;;14.80;99.90;;;;;;5014383;28;20848;-68
2022/08/22 13:03:25;;;;;;;52.72;34.45;;;14.90;99.90;;;;;;5013654;28;20203;-67
2022/08/22 13:05:57;;;;;;;7.65;4.68;;;14.90;99.90;;;;;;5013128;28;20677;-66
2022/08/22 13:08:32;;;;;;;1.63;1.13;;;15.00;99.90;;;;;;5015120;28;20217;-67
2022/08/22 13:11:07;;;;;;;1.70;0.77;;;15.00;99.90;;;;;;5006362;28;20218;-67
2022/08/22 13:13:41;;;;;;;0.57;0.40;;;15.00;99.90;;;;;;5014201;28;20666;-67
2022/08/22 13:16:16;;;;;;;0.70;0.60;;;15.20;99.90;;;;;;5011661;28;20195;-79
2022/08/22 13:18:54;;;;;;;2.22;0.40;;;15.40;99.90;;;;;;5012705;28;20606;-67
2022/08/22 13:21:30;;;;;;;1.65;0.70;;;15.30;99.90;;;;;;5008263;28;20189;-68
2022/08/22 13:24:06;;;;;;;0.50;0.40;;;15.40;99.90;;;;;;5009291;28;20567;-67
2022/08/22 13:26:37;;;;;;;0.40;0.40;;;15.40;99.90;;;;;;5010931;28;20209;-67
2022/08/22 13:29:16;;;;;;;1.52;0.40;;;15.40;99.90;;;;;;5013129;28;20198;-67
2022/08/22 13:31:54;;;;;;;2.15;0.50;;;15.40;99.90;;;;;;5010220;28;20218;-70
2022/08/22 13:34:38;;;;;;;1.63;0.30;;;15.40;99.90;;;;;;5013464;28;20201;-68
2022/08/22 13:37:14;;;;;;;0.45;0.30;;;15.40;99.90;;;;;;5014186;28;20285;-68
2022/08/22 13:39:47;;;;;;;0.70;0.30;;;15.30;99.90;;;;;;5013634;28;20191;-71
2022/08/22 13:42:21;;;;;;;1.20;0.30;;;15.40;99.90;;;;;;5013935;28;20203;-67
2022/08/22 13:44:54;;;;;;;0.35;0.30;;;15.40;99.90;;;;;;5013302;28;20202;-68
2022/08/22 13:47:29;;;;;;;1.42;0.30;;;15.30;99.90;;;;;;5013561;28;20187;-68
2022/08/22 13:50:11;;;;;;;0.40;0.40;;;15.30;99.90;;;;;;5013628;28;20684;-68
2022/08/22 13:52:48;;;;;;;0.82;0.28;;;15.30;99.90;;;;;;5013853;28;20193;-68
2022/08/22 13:55:25;;;;;;;0.38;0.30;;;15.30;99.90;;;;;;5012806;28;20199;-67
2022/08/22 13:58:00;;;;;;;0.63;0.30;;;15.40;99.90;;;;;;5006280;28;20301;-68
2022/08/22 14:01:19;;;;;;;0.60;0.50;;;15.40;99.90;;;;;;5010529;28;20206;-68
2022/08/22 14:03:57;;;;;;;0.60;0.30;;;15.40;99.90;;;;;;4952027;29;20197;-69
2022/08/22 14:06:35;;;;;;;1.67;0.50;;;15.40;99.90;;;;;;5012912;28;20650;-68
2022/08/22 14:09:14;;;;;;;0.20;0.20;;;15.30;99.90;;;;;;5007049;28;20199;-68